ACT weather

Waco Regional Airport
Waco, Texas, United States

Public forecast

Using degrees Fahrenheit for public forecast. Weather courtesy of forecast.io.

METAR (pilot weather report)

Retrieved 2019/09/18 00:51 UTC (58 minutes ago):

KACT 180051Z 09007KT 10SM FEW080 29/21 A2989 RMK AO2 SLP114 T02890211 $

TAF (pilot weather forecast)

Forecast is more than 12 hours old.

Retrieved 2019/09/17 00:34 UTC (1 day ago):

TAF KACT 172332Z 1800/1824 09010KT P6SM VCSH BKN050 FM180200 10009KT P6SM BKN120 FM181300 03010KT P6SM VCSH BKN018 FM181900 05009KT P6SM SHRA BKN050